sensor_id;sensor_type;location;lat;lon;timestamp;pressure;altitude;pressure_sealevel;temperature;humidity
23229;BME280;11783;50.350;6.576;2023-07-20T00:02:14;96149.91;;;16.25;67.25
23229;BME280;11783;50.350;6.576;2023-07-20T00:04:39;96152.03;;;16.28;67.87
23229;BME280;11783;50.350;6.576;2023-07-20T00:07:05;96156.34;;;16.24;68.05
23229;BME280;11783;50.350;6.576;2023-07-20T00:09:30;96153.69;;;16.24;69.24
23229;BME280;11783;50.350;6.576;2023-07-20T00:11:56;96153.69;;;16.24;68.46
23229;BME280;11783;50.350;6.576;2023-07-20T00:14:21;96156.41;;;16.19;68.36
23229;BME280;11783;50.350;6.576;2023-07-20T00:16:47;96152.41;;;16.12;68.04
23229;BME280;11783;50.350;6.576;2023-07-20T00:19:14;96153.50;;;16.11;68.01
23229;BME280;11783;50.350;6.576;2023-07-20T00:21:39;96155.09;;;16.12;68.30
23229;BME280;11783;50.350;6.576;2023-07-20T00:24:08;96157.75;;;16.17;69.26
23229;BME280;11783;50.350;6.576;2023-07-20T00:26:33;96152.94;;;16.14;69.12
23229;BME280;11783;50.350;6.576;2023-07-20T00:28:59;96150.81;;;16.11;68.79
23229;BME280;11783;50.350;6.576;2023-07-20T00:31:24;96151.34;;;16.13;69.14
23229;BME280;11783;50.350;6.576;2023-07-20T00:33:49;96144.38;;;16.12;69.14
23229;BME280;11783;50.350;6.576;2023-07-20T00:36:15;96147.34;;;16.10;69.94
23229;BME280;11783;50.350;6.576;2023-07-20T00:38:41;96142.25;;;16.09;71.54
23229;BME280;11783;50.350;6.576;2023-07-20T00:41:07;96144.72;;;16.05;70.34
23229;BME280;11783;50.350;6.576;2023-07-20T00:43:32;96148.44;;;16.09;71.66
23229;BME280;11783;50.350;6.576;2023-07-20T00:45:57;96148.72;;;16.08;69.54
23229;BME280;11783;50.350;6.576;2023-07-20T00:48:23;96139.91;;;16.02;69.81
23229;BME280;11783;50.350;6.576;2023-07-20T00:50:49;96136.09;;;16.08;69.83
23229;BME280;11783;50.350;6.576;2023-07-20T00:53:15;96140.94;;;16.06;70.44
23229;BME280;11783;50.350;6.576;2023-07-20T00:55:41;96133.41;;;16.08;69.97
23229;BME280;11783;50.350;6.576;2023-07-20T00:58:06;96143.63;;;16.06;70.73
23229;BME280;11783;50.350;6.576;2023-07-20T01:00:32;96130.28;;;16.01;71.15
23229;BME280;11783;50.350;6.576;2023-07-20T01:02:57;96136.16;;;15.98;71.55
23229;BME280;11783;50.350;6.576;2023-07-20T01:05:28;96136.19;;;15.93;70.83
23229;BME280;11783;50.350;6.576;2023-07-20T01:08:13;96133.47;;;15.98;71.07
23229;BME280;11783;50.350;6.576;2023-07-20T01:10:48;96135.91;;;15.99;71.62
23229;BME280;11783;50.350;6.576;2023-07-20T01:13:18;96132.72;;;15.92;71.26
23229;BME280;11783;50.350;6.576;2023-07-20T01:16:00;96135.13;;;15.94;72.66
23229;BME280;11783;50.350;6.576;2023-07-20T01:18:26;96127.38;;;15.92;72.03
23229;BME280;11783;50.350;6.576;2023-07-20T01:20:54;96130.88;;;15.88;72.42
23229;BME280;11783;50.350;6.576;2023-07-20T01:29:26;96132.53;;;15.84;74.26
23229;BME280;11783;50.350;6.576;2023-07-20T01:31:57;96132.50;;;15.89;72.56
23229;BME280;11783;50.350;6.576;2023-07-20T01:34:23;96125.56;;;15.83;73.56
23229;BME280;11783;50.350;6.576;2023-07-20T01:36:50;96123.97;;;15.82;73.21
23229;BME280;11783;50.350;6.576;2023-07-20T01:39:18;96122.09;;;15.82;73.75
23229;BME280;11783;50.350;6.576;2023-07-20T01:41:44;96126.09;;;15.85;75.52
23229;BME280;11783;50.350;6.576;2023-07-20T01:44:10;96123.44;;;15.80;73.87
23229;BME280;11783;50.350;6.576;2023-07-20T01:46:36;96123.47;;;15.74;74.50
23229;BME280;11783;50.350;6.576;2023-07-20T01:49:01;96125.16;;;15.65;73.53
23229;BME280;11783;50.350;6.576;2023-07-20T01:51:26;96127.22;;;15.73;73.89
23229;BME280;11783;50.350;6.576;2023-07-20T01:53:52;96125.31;;;15.79;73.43
23229;BME280;11783;50.350;6.576;2023-07-20T01:56:18;96119.16;;;15.79;74.47
23229;BME280;11783;50.350;6.576;2023-07-20T01:58:43;96121.53;;;15.80;74.67
23229;BME280;11783;50.350;6.576;2023-07-20T02:01:09;96125.31;;;15.79;73.32
23229;BME280;11783;50.350;6.576;2023-07-20T02:03:34;96125.16;;;15.60;77.41
23229;BME280;11783;50.350;6.576;2023-07-20T02:06:00;96127.31;;;15.63;74.78
23229;BME280;11783;50.350;6.576;2023-07-20T02:08:26;96116.56;;;15.58;73.90
23229;BME280;11783;50.350;6.576;2023-07-20T02:10:51;96114.72;;;15.59;75.52
23229;BME280;11783;50.350;6.576;2023-07-20T02:13:17;96113.63;;;15.60;74.96
23229;BME280;11783;50.350;6.576;2023-07-20T02:15:42;96117.38;;;15.64;74.47
23229;BME280;11783;50.350;6.576;2023-07-20T02:18:08;96110.44;;;15.63;75.01
23229;BME280;11783;50.350;6.576;2023-07-20T02:20:34;96112.03;;;15.64;74.69
23229;BME280;11783;50.350;6.576;2023-07-20T02:22:59;96116.28;;;15.70;76.28
23229;BME280;11783;50.350;6.576;2023-07-20T02:25:25;96111.19;;;15.68;75.61
23229;BME280;11783;50.350;6.576;2023-07-20T02:27:50;96111.75;;;15.60;75.06
23229;BME280;11783;50.350;6.576;2023-07-20T02:30:15;96108.56;;;15.63;75.17
23229;BME280;11783;50.350;6.576;2023-07-20T02:32:41;96103.19;;;15.63;76.33
23229;BME280;11783;50.350;6.576;2023-07-20T02:35:11;96105.34;;;15.56;74.78
23229;BME280;11783;50.350;6.576;2023-07-20T02:37:37;96100.00;;;15.51;75.28
23229;BME280;11783;50.350;6.576;2023-07-20T02:40:02;96097.34;;;15.51;74.76
23229;BME280;11783;50.350;6.576;2023-07-20T02:42:29;96099.16;;;15.56;74.94
23229;BME280;11783;50.350;6.576;2023-07-20T02:44:55;96095.19;;;15.53;74.11
23229;BME280;11783;50.350;6.576;2023-07-20T02:47:20;96097.94;;;15.38;75.35
23229;BME280;11783;50.350;6.576;2023-07-20T02:49:45;96094.69;;;15.41;75.16
23229;BME280;11783;50.350;6.576;2023-07-20T02:52:11;96096.28;;;15.47;74.30
23229;BME280;11783;50.350;6.576;2023-07-20T02:54:36;96093.13;;;15.35;76.24
23229;BME280;11783;50.350;6.576;2023-07-20T02:57:01;96090.19;;;15.36;75.35
23229;BME280;11783;50.350;6.576;2023-07-20T02:59:27;96092.59;;;15.38;74.69
23229;BME280;11783;50.350;6.576;2023-07-20T03:01:52;96097.22;;;15.27;78.62
23229;BME280;11783;50.350;6.576;2023-07-20T03:04:19;96089.97;;;15.28;75.98
23229;BME280;11783;50.350;6.576;2023-07-20T03:06:44;96092.16;;;15.15;75.97
23229;BME280;11783;50.350;6.576;2023-07-20T03:09:10;96101.41;;;14.79;80.71
23229;BME280;11783;50.350;6.576;2023-07-20T03:11:35;96103.78;;;14.85;76.91
23229;BME280;11783;50.350;6.576;2023-07-20T03:14:01;96106.72;;;14.89;76.77
23229;BME280;11783;50.350;6.576;2023-07-20T03:16:26;96114.22;;;14.92;75.53
23229;BME280;11783;50.350;6.576;2023-07-20T03:18:52;96117.69;;;14.93;75.62
23229;BME280;11783;50.350;6.576;2023-07-20T03:21:17;96113.94;;;14.94;75.36
23229;BME280;11783;50.350;6.576;2023-07-20T03:23:43;96121.72;;;14.90;75.04
23229;BME280;11783;50.350;6.576;2023-07-20T03:26:08;96115.28;;;14.91;74.49
23229;BME280;11783;50.350;6.576;2023-07-20T03:28:35;96125.75;;;14.88;74.89
23229;BME280;11783;50.350;6.576;2023-07-20T03:31:00;96129.19;;;14.93;75.02
23229;BME280;11783;50.350;6.576;2023-07-20T03:33:27;96126.00;;;14.91;74.16
23229;BME280;11783;50.350;6.576;2023-07-20T03:35:53;96123.88;;;14.88;74.33
23229;BME280;11783;50.350;6.576;2023-07-20T03:38:19;96128.13;;;14.89;73.62
23229;BME280;11783;50.350;6.576;2023-07-20T03:40:58;96134.81;;;14.87;74.43
23229;BME280;11783;50.350;6.576;2023-07-20T03:43:24;96127.59;;;14.82;74.66
23229;BME280;11783;50.350;6.576;2023-07-20T03:45:51;96131.13;;;14.67;74.54
23229;BME280;11783;50.350;6.576;2023-07-20T03:48:18;96135.94;;;14.70;74.89
23229;BME280;11783;50.350;6.576;2023-07-20T03:50:45;96124.69;;;14.68;74.09
23229;BME280;11783;50.350;6.576;2023-07-20T03:53:11;96130.06;;;14.63;74.72
23229;BME280;11783;50.350;6.576;2023-07-20T03:55:36;96135.16;;;14.70;75.45
23229;BME280;11783;50.350;6.576;2023-07-20T03:58:02;96139.69;;;14.64;75.42
23229;BME280;11783;50.350;6.576;2023-07-20T04:00:28;96136.22;;;14.64;75.19
23229;BME280;11783;50.350;6.576;2023-07-20T04:02:53;96141.31;;;14.60;74.68
23229;BME280;11783;50.350;6.576;2023-07-20T04:05:19;96146.41;;;14.57;75.17
23229;BME280;11783;50.350;6.576;2023-07-20T04:07:44;96143.72;;;14.46;75.11
23229;BME280;11783;50.350;6.576;2023-07-20T04:10:10;96141.06;;;14.51;75.95
23229;BME280;11783;50.350;6.576;2023-07-20T04:12:35;96132.25;;;14.51;75.29
23229;BME280;11783;50.350;6.576;2023-07-20T04:15:01;96136.75;;;14.40;82.13
23229;BME280;11783;50.350;6.576;2023-07-20T04:17:29;96141.84;;;14.42;81.24
23229;BME280;11783;50.350;6.576;2023-07-20T04:19:54;96131.41;;;14.35;79.42
23229;BME280;11783;50.350;6.576;2023-07-20T04:22:19;96138.91;;;14.38;80.49
23229;BME280;11783;50.350;6.576;2023-07-20T04:24:45;96139.69;;;14.39;80.40
23229;BME280;11783;50.350;6.576;2023-07-20T04:27:10;96138.91;;;14.43;82.41
23229;BME280;11783;50.350;6.576;2023-07-20T04:29:36;96138.91;;;14.33;81.20
23229;BME280;11783;50.350;6.576;2023-07-20T04:32:01;96140.25;;;14.36;80.46
23229;BME280;11783;50.350;6.576;2023-07-20T04:34:26;96143.19;;;14.44;80.67
23229;BME280;11783;50.350;6.576;2023-07-20T04:36:52;96143.72;;;14.46;81.62
23229;BME280;11783;50.350;6.576;2023-07-20T04:39:17;96148.81;;;14.48;80.88
23229;BME280;11783;50.350;6.576;2023-07-20T04:41:42;96129.28;;;14.52;80.19
23229;BME280;11783;50.350;6.576;2023-07-20T04:44:08;96135.16;;;14.60;81.27
23229;BME280;11783;50.350;6.576;2023-07-20T04:46:33;96124.97;;;14.62;80.60
23229;BME280;11783;50.350;6.576;2023-07-20T04:48:58;96122.03;;;14.63;81.40
23229;BME280;11783;50.350;6.576;2023-07-20T04:51:24;96125.50;;;14.64;80.12
23229;BME280;11783;50.350;6.576;2023-07-20T04:53:49;96125.25;;;14.70;80.12
23229;BME280;11783;50.350;6.576;2023-07-20T04:56:15;96127.66;;;14.72;81.51
23229;BME280;11783;50.350;6.576;2023-07-20T04:58:40;96126.56;;;14.73;80.03
23229;BME280;11783;50.350;6.576;2023-07-20T05:01:05;96134.31;;;14.79;82.57
23229;BME280;11783;50.350;6.576;2023-07-20T05:03:31;96143.13;;;14.85;80.66
23229;BME280;11783;50.350;6.576;2023-07-20T05:05:57;96146.06;;;14.83;81.09
23229;BME280;11783;50.350;6.576;2023-07-20T05:08:22;96139.66;;;14.90;83.97
23229;BME280;11783;50.350;6.576;2023-07-20T05:10:48;96139.09;;;14.93;85.08
23229;BME280;11783;50.350;6.576;2023-07-20T05:13:13;96133.78;;;14.88;84.47
23229;BME280;11783;50.350;6.576;2023-07-20T05:15:39;96136.97;;;14.90;84.50
23229;BME280;11783;50.350;6.576;2023-07-20T05:18:04;96137.75;;;14.95;85.70
23229;BME280;11783;50.350;6.576;2023-07-20T05:20:30;96145.50;;;14.97;88.88
23229;BME280;11783;50.350;6.576;2023-07-20T05:22:57;96138.84;;;14.89;88.08
23229;BME280;11783;50.350;6.576;2023-07-20T05:25:22;96132.16;;;14.92;87.28
23229;BME280;11783;50.350;6.576;2023-07-20T05:27:48;96138.78;;;15.04;87.95
23229;BME280;11783;50.350;6.576;2023-07-20T05:30:13;96137.19;;;15.08;90.00
23229;BME280;11783;50.350;6.576;2023-07-20T05:32:38;96143.56;;;15.18;89.93
23229;BME280;11783;50.350;6.576;2023-07-20T05:35:04;96133.41;;;15.14;91.04
23229;BME280;11783;50.350;6.576;2023-07-20T05:37:29;96143.00;;;15.21;90.61
23229;BME280;11783;50.350;6.576;2023-07-20T05:39:55;96138.44;;;15.21;90.30
23229;BME280;11783;50.350;6.576;2023-07-20T05:42:20;96148.34;;;15.21;92.04
23229;BME280;11783;50.350;6.576;2023-07-20T05:44:46;96140.88;;;15.18;92.83
23229;BME280;11783;50.350;6.576;2023-07-20T05:47:13;96150.28;;;15.10;93.89
23229;BME280;11783;50.350;6.576;2023-07-20T05:49:38;96148.69;;;15.09;93.69
23229;BME280;11783;50.350;6.576;2023-07-20T05:52:04;96154.00;;;15.14;93.47
23229;BME280;11783;50.350;6.576;2023-07-20T05:54:29;96157.50;;;15.09;94.83
23229;BME280;11783;50.350;6.576;2023-07-20T05:56:55;96152.66;;;15.17;94.14
23229;BME280;11783;50.350;6.576;2023-07-20T05:59:20;96156.63;;;15.24;93.46
23229;BME280;11783;50.350;6.576;2023-07-20T06:01:46;96161.75;;;15.21;93.00
23229;BME280;11783;50.350;6.576;2023-07-20T06:04:14;96163.88;;;15.19;96.21
23229;BME280;11783;50.350;6.576;2023-07-20T06:06:39;96162.50;;;15.31;92.91
23229;BME280;11783;50.350;6.576;2023-07-20T06:09:04;96163.00;;;15.38;92.49
23229;BME280;11783;50.350;6.576;2023-07-20T06:11:32;96167.28;;;15.44;94.12
23229;BME280;11783;50.350;6.576;2023-07-20T06:13:58;96169.94;;;15.50;91.69
23229;BME280;11783;50.350;6.576;2023-07-20T06:16:23;96168.31;;;15.49;90.67
23229;BME280;11783;50.350;6.576;2023-07-20T06:18:48;96164.81;;;15.53;90.03
23229;BME280;11783;50.350;6.576;2023-07-20T06:21:13;96169.94;;;15.50;90.26
23229;BME280;11783;50.350;6.576;2023-07-20T06:23:39;96171.03;;;15.43;91.10
23229;BME280;11783;50.350;6.576;2023-07-20T06:26:06;96171.22;;;15.57;87.92
23229;BME280;11783;50.350;6.576;2023-07-20T06:28:31;96165.28;;;15.70;88.30
23229;BME280;11783;50.350;6.576;2023-07-20T06:31:01;96164.75;;;15.73;87.14
23229;BME280;11783;50.350;6.576;2023-07-20T06:33:26;96160.41;;;15.83;87.23
23229;BME280;11783;50.350;6.576;2023-07-20T06:35:52;96163.84;;;15.88;85.24
23229;BME280;11783;50.350;6.576;2023-07-20T06:38:18;96160.28;;;15.98;84.66
23229;BME280;11783;50.350;6.576;2023-07-20T06:40:45;96165.13;;;16.01;83.96
23229;BME280;11783;50.350;6.576;2023-07-20T06:43:10;96164.38;;;15.90;81.47
23229;BME280;11783;50.350;6.576;2023-07-20T06:45:36;96167.75;;;16.06;82.55
23229;BME280;11783;50.350;6.576;2023-07-20T06:48:01;96162.44;;;16.01;84.46
23229;BME280;11783;50.350;6.576;2023-07-20T06:50:27;96164.75;;;16.13;84.71
23229;BME280;11783;50.350;6.576;2023-07-20T06:52:52;96164.03;;;16.02;85.61
23229;BME280;11783;50.350;6.576;2023-07-20T06:55:17;96169.31;;;16.12;84.12
23229;BME280;11783;50.350;6.576;2023-07-20T06:57:43;96169.25;;;16.22;83.90
23229;BME280;11783;50.350;6.576;2023-07-20T07:00:09;96174.09;;;16.20;82.36
23229;BME280;11783;50.350;6.576;2023-07-20T07:02:35;96174.00;;;16.30;83.20
23229;BME280;11783;50.350;6.576;2023-07-20T07:05:00;96176.97;;;16.29;83.03
23229;BME280;11783;50.350;6.576;2023-07-20T07:07:26;96178.59;;;16.25;82.91
23229;BME280;11783;50.350;6.576;2023-07-20T07:09:51;96180.72;;;16.28;80.54
23229;BME280;11783;50.350;6.576;2023-07-20T07:12:17;96180.88;;;16.42;81.61
23229;BME280;11783;50.350;6.576;2023-07-20T07:14:42;96184.56;;;16.51;81.11
23229;BME280;11783;50.350;6.576;2023-07-20T07:17:07;96183.75;;;16.55;80.52
23229;BME280;11783;50.350;6.576;2023-07-20T07:19:33;96190.66;;;16.61;81.12
23229;BME280;11783;50.350;6.576;2023-07-20T07:21:58;96187.69;;;16.63;81.28
23229;BME280;11783;50.350;6.576;2023-07-20T07:24:23;96187.13;;;16.66;80.05
23229;BME280;11783;50.350;6.576;2023-07-20T07:26:49;96188.97;;;16.71;78.79
23229;BME280;11783;50.350;6.576;2023-07-20T07:29:14;96181.56;;;16.57;77.11
23229;BME280;11783;50.350;6.576;2023-07-20T07:31:39;96195.22;;;16.61;76.66
23229;BME280;11783;50.350;6.576;2023-07-20T07:34:05;96184.97;;;16.68;77.48
23229;BME280;11783;50.350;6.576;2023-07-20T07:36:31;96188.09;;;16.80;77.60
23229;BME280;11783;50.350;6.576;2023-07-20T07:38:57;96193.63;;;16.89;76.51
23229;BME280;11783;50.350;6.576;2023-07-20T07:41:22;96183.53;;;17.05;75.07
23229;BME280;11783;50.350;6.576;2023-07-20T07:43:48;96186.16;;;17.10;74.92
23229;BME280;11783;50.350;6.576;2023-07-20T07:46:13;96186.34;;;17.18;76.38
23229;BME280;11783;50.350;6.576;2023-07-20T07:48:39;96179.59;;;17.21;76.32
23229;BME280;11783;50.350;6.576;2023-07-20T07:51:05;96185.81;;;17.40;75.60
23229;BME280;11783;50.350;6.576;2023-07-20T07:53:31;96189.06;;;17.61;75.55
23229;BME280;11783;50.350;6.576;2023-07-20T07:55:58;96193.41;;;17.81;73.34
23229;BME280;11783;50.350;6.576;2023-07-20T07:58:23;96185.72;;;17.93;72.21
23229;BME280;11783;50.350;6.576;2023-07-20T08:00:48;96186.09;;;18.05;70.47
23229;BME280;11783;50.350;6.576;2023-07-20T08:03:14;96188.69;;;18.10;70.78
23229;BME280;11783;50.350;6.576;2023-07-20T08:05:39;96192.53;;;18.23;71.04
23229;BME280;11783;50.350;6.576;2023-07-20T08:08:04;96190.63;;;18.42;69.34
23229;BME280;11783;50.350;6.576;2023-07-20T08:10:30;96179.56;;;18.63;67.75
23229;BME280;11783;50.350;6.576;2023-07-20T08:12:56;96192.47;;;18.80;67.46
23229;BME280;11783;50.350;6.576;2023-07-20T08:15:21;96191.78;;;18.88;65.33
23229;BME280;11783;50.350;6.576;2023-07-20T08:17:46;96197.75;;;18.85;62.84
23229;BME280;11783;50.350;6.576;2023-07-20T08:20:14;96202.66;;;18.83;63.11
23229;BME280;11783;50.350;6.576;2023-07-20T08:22:39;96198.06;;;18.83;61.81
23229;BME280;11783;50.350;6.576;2023-07-20T08:25:06;96197.00;;;18.98;62.59
23229;BME280;11783;50.350;6.576;2023-07-20T08:27:31;96196.09;;;19.02;61.75
23229;BME280;11783;50.350;6.576;2023-07-20T08:29:56;96200.41;;;19.17;62.99
23229;BME280;11783;50.350;6.576;2023-07-20T08:32:22;96192.53;;;19.34;60.96
23229;BME280;11783;50.350;6.576;2023-07-20T08:34:47;96197.41;;;19.32;59.90
23229;BME280;11783;50.350;6.576;2023-07-20T08:37:13;96198.69;;;19.49;60.22
23229;BME280;11783;50.350;6.576;2023-07-20T08:39:38;96189.47;;;19.55;60.17
23229;BME280;11783;50.350;6.576;2023-07-20T08:42:04;96189.97;;;19.57;59.50
23229;BME280;11783;50.350;6.576;2023-07-20T08:44:35;96185.94;;;19.68;58.41
23229;BME280;11783;50.350;6.576;2023-07-20T08:47:02;96190.03;;;19.79;58.93
23229;BME280;11783;50.350;6.576;2023-07-20T08:49:30;96191.00;;;19.83;59.47
23229;BME280;11783;50.350;6.576;2023-07-20T08:51:56;96188.13;;;19.80;59.53
23229;BME280;11783;50.350;6.576;2023-07-20T08:54:22;96186.72;;;19.82;59.08
23229;BME280;11783;50.350;6.576;2023-07-20T08:56:49;96186.81;;;19.91;59.76
23229;BME280;11783;50.350;6.576;2023-07-20T08:59:16;96194.44;;;19.75;57.89
23229;BME280;11783;50.350;6.576;2023-07-20T09:01:43;96186.41;;;19.84;57.96
23229;BME280;11783;50.350;6.576;2023-07-20T09:04:10;96184.97;;;20.00;59.01
23229;BME280;11783;50.350;6.576;2023-07-20T09:06:36;96187.09;;;20.25;56.29
23229;BME280;11783;50.350;6.576;2023-07-20T09:09:01;96184.13;;;20.27;56.18
23229;BME280;11783;50.350;6.576;2023-07-20T09:11:27;96178.84;;;20.44;55.16
23229;BME280;11783;50.350;6.576;2023-07-20T09:14:08;96179.69;;;20.31;54.61
23229;BME280;11783;50.350;6.576;2023-07-20T09:16:52;96182.06;;;20.46;54.06
23229;BME280;11783;50.350;6.576;2023-07-20T09:19:18;96173.06;;;20.60;51.28
23229;BME280;11783;50.350;6.576;2023-07-20T09:21:45;96181.75;;;20.70;52.64
23229;BME280;11783;50.350;6.576;2023-07-20T09:24:12;96183.38;;;20.80;51.69
23229;BME280;11783;50.350;6.576;2023-07-20T09:26:41;96182.34;;;20.98;49.66
23229;BME280;11783;50.350;6.576;2023-07-20T09:29:08;96183.63;;;21.01;50.84
23229;BME280;11783;50.350;6.576;2023-07-20T09:31:37;96181.53;;;20.89;50.94
23229;BME280;11783;50.350;6.576;2023-07-20T09:34:04;96189.19;;;20.96;50.98
23229;BME280;11783;50.350;6.576;2023-07-20T09:36:33;96188.22;;;20.92;50.75
23229;BME280;11783;50.350;6.576;2023-07-20T09:38:59;96181.25;;;20.99;50.53
23229;BME280;11783;50.350;6.576;2023-07-20T09:41:25;96184.66;;;21.13;51.71
23229;BME280;11783;50.350;6.576;2023-07-20T09:43:52;96180.22;;;21.17;50.17
23229;BME280;11783;50.350;6.576;2023-07-20T09:46:18;96180.94;;;21.32;49.29
23229;BME280;11783;50.350;6.576;2023-07-20T09:48:54;96176.88;;;21.43;48.40
23229;BME280;11783;50.350;6.576;2023-07-20T09:51:22;96185.22;;;21.24;49.22
23229;BME280;11783;50.350;6.576;2023-07-20T09:53:48;96186.84;;;21.34;51.18
23229;BME280;11783;50.350;6.576;2023-07-20T09:56:16;96181.25;;;21.30;49.36
23229;BME280;11783;50.350;6.576;2023-07-20T09:58:43;96177.81;;;21.38;48.28
23229;BME280;11783;50.350;6.576;2023-07-20T10:01:12;96167.50;;;21.49;47.71
23229;BME280;11783;50.350;6.576;2023-07-20T10:03:41;96173.22;;;21.48;48.00
23229;BME280;11783;50.350;6.576;2023-07-20T10:06:13;96170.34;;;21.44;48.26
23229;BME280;11783;50.350;6.576;2023-07-20T10:08:41;96168.75;;;21.43;48.66
23229;BME280;11783;50.350;6.576;2023-07-20T10:11:07;96166.53;;;21.14;46.81
23229;BME280;11783;50.350;6.576;2023-07-20T10:13:37;96162.66;;;21.29;49.00
23229;BME280;11783;50.350;6.576;2023-07-20T10:16:17;96159.84;;;21.51;47.24
23229;BME280;11783;50.350;6.576;2023-07-20T10:18:53;96161.53;;;21.78;47.19
23229;BME280;11783;50.350;6.576;2023-07-20T10:21:20;96161.53;;;21.95;46.92
23229;BME280;11783;50.350;6.576;2023-07-20T10:23:48;96156.63;;;22.06;45.28
23229;BME280;11783;50.350;6.576;2023-07-20T10:26:13;96163.50;;;22.21;44.65
23229;BME280;11783;50.350;6.576;2023-07-20T10:28:39;96155.66;;;22.28;43.49
23229;BME280;11783;50.350;6.576;2023-07-20T10:31:10;96160.63;;;22.26;43.64
23229;BME280;11783;50.350;6.576;2023-07-20T10:33:37;96156.16;;;22.21;44.36
23229;BME280;11783;50.350;6.576;2023-07-20T10:36:04;96156.63;;;22.23;43.13
23229;BME280;11783;50.350;6.576;2023-07-20T10:43:44;96149.63;;;22.05;44.65
23229;BME280;11783;50.350;6.576;2023-07-20T10:46:11;96150.72;;;22.04;45.07
23229;BME280;11783;50.350;6.576;2023-07-20T10:49:00;96151.50;;;21.96;46.72
23229;BME280;11783;50.350;6.576;2023-07-20T10:51:29;96146.16;;;22.13;45.91
23229;BME280;11783;50.350;6.576;2023-07-20T10:54:01;96147.22;;;22.03;45.43
23229;BME280;11783;50.350;6.576;2023-07-20T10:56:27;96147.22;;;22.03;44.90
23229;BME280;11783;50.350;6.576;2023-07-20T10:59:00;96142.31;;;22.14;44.93
23229;BME280;11783;50.350;6.576;2023-07-20T11:01:30;96147.22;;;22.12;43.88
23229;BME280;11783;50.350;6.576;2023-07-20T11:03:58;96135.94;;;22.27;42.35
23229;BME280;11783;50.350;6.576;2023-07-20T11:11:30;96134.00;;;22.45;42.04
23229;BME280;11783;50.350;6.576;2023-07-20T11:13:59;96140.53;;;22.44;40.90
23229;BME280;11783;50.350;6.576;2023-07-20T11:16:36;96142.13;;;22.45;42.32
23229;BME280;11783;50.350;6.576;2023-07-20T11:19:03;96133.88;;;22.33;42.08
23229;BME280;11783;50.350;6.576;2023-07-20T11:21:29;96133.84;;;22.42;43.14
23229;BME280;11783;50.350;6.576;2023-07-20T11:23:55;96135.59;;;22.55;42.44
23229;BME280;11783;50.350;6.576;2023-07-20T11:26:21;96134.91;;;22.75;42.99
23229;BME280;11783;50.350;6.576;2023-07-20T11:28:50;96123.56;;;22.90;40.85
23229;BME280;11783;50.350;6.576;2023-07-20T11:31:19;96128.47;;;23.06;42.09
23229;BME280;11783;50.350;6.576;2023-07-20T11:33:45;96123.97;;;23.10;41.15
23229;BME280;11783;50.350;6.576;2023-07-20T11:36:12;96133.03;;;23.14;40.62
23229;BME280;11783;50.350;6.576;2023-07-20T11:38:40;96134.19;;;23.04;41.60
23229;BME280;11783;50.350;6.576;2023-07-20T11:41:07;96143.47;;;22.94;41.85
23229;BME280;11783;50.350;6.576;2023-07-20T11:43:32;96141.56;;;22.95;42.27
23229;BME280;11783;50.350;6.576;2023-07-20T11:45:57;96142.94;;;23.10;42.07
23229;BME280;11783;50.350;6.576;2023-07-20T11:48:23;96140.66;;;23.20;41.43
23229;BME280;11783;50.350;6.576;2023-07-20T11:50:48;96139.03;;;23.28;41.73
23229;BME280;11783;50.350;6.576;2023-07-20T11:53:14;96138.72;;;23.30;38.86
23229;BME280;11783;50.350;6.576;2023-07-20T11:55:40;96138.91;;;23.24;40.36
23229;BME280;11783;50.350;6.576;2023-07-20T11:58:08;96135.56;;;23.19;40.40
23229;BME280;11783;50.350;6.576;2023-07-20T12:00:34;96126.28;;;23.29;38.10
23229;BME280;11783;50.350;6.576;2023-07-20T12:02:59;96124.78;;;23.10;37.63
23229;BME280;11783;50.350;6.576;2023-07-20T12:05:25;96127.28;;;23.15;39.48
23229;BME280;11783;50.350;6.576;2023-07-20T12:07:54;96121.97;;;23.27;39.59
23229;BME280;11783;50.350;6.576;2023-07-20T12:10:27;96132.75;;;23.07;40.17
23229;BME280;11783;50.350;6.576;2023-07-20T12:13:01;96126.31;;;23.20;39.89
23229;BME280;11783;50.350;6.576;2023-07-20T12:15:30;96131.13;;;23.14;40.01
23229;BME280;11783;50.350;6.576;2023-07-20T12:17:58;96121.53;;;23.17;39.99
23229;BME280;11783;50.350;6.576;2023-07-20T12:20:32;96122.41;;;23.00;38.85
23229;BME280;11783;50.350;6.576;2023-07-20T12:23:03;96123.53;;;22.99;40.59
23229;BME280;11783;50.350;6.576;2023-07-20T12:25:48;96129.28;;;22.98;40.01
23229;BME280;11783;50.350;6.576;2023-07-20T12:28:15;96118.25;;;23.03;40.62
23229;BME280;11783;50.350;6.576;2023-07-20T12:30:42;96123.31;;;23.13;40.83
23229;BME280;11783;50.350;6.576;2023-07-20T12:33:08;96132.38;;;23.25;41.06
23229;BME280;11783;50.350;6.576;2023-07-20T12:35:34;96125.41;;;23.45;41.21
23229;BME280;11783;50.350;6.576;2023-07-20T12:37:59;96114.81;;;23.23;39.72
23229;BME280;11783;50.350;6.576;2023-07-20T12:40:25;96116.22;;;23.29;40.19
23229;BME280;11783;50.350;6.576;2023-07-20T12:42:50;96108.47;;;23.48;40.83
23229;BME280;11783;50.350;6.576;2023-07-20T12:45:16;96114.81;;;23.52;39.19
23229;BME280;11783;50.350;6.576;2023-07-20T12:47:42;96113.75;;;23.74;39.71
23229;BME280;11783;50.350;6.576;2023-07-20T12:50:09;96108.84;;;23.89;39.93
23229;BME280;11783;50.350;6.576;2023-07-20T12:52:39;96117.53;;;23.82;38.65
23229;BME280;11783;50.350;6.576;2023-07-20T12:55:06;96119.63;;;23.97;39.97
23229;BME280;11783;50.350;6.576;2023-07-20T12:57:36;96111.56;;;23.68;38.97
23229;BME280;11783;50.350;6.576;2023-07-20T13:00:03;96102.44;;;23.72;39.72
23229;BME280;11783;50.350;6.576;2023-07-20T13:02:32;96109.78;;;23.72;39.33
23229;BME280;11783;50.350;6.576;2023-07-20T13:04:58;96099.78;;;23.84;38.46
23229;BME280;11783;50.350;6.576;2023-07-20T13:07:33;96092.38;;;23.94;39.27
23229;BME280;11783;50.350;6.576;2023-07-20T13:09:59;96100.63;;;23.97;39.25
23229;BME280;11783;50.350;6.576;2023-07-20T13:12:29;96105.09;;;23.81;38.31
23229;BME280;11783;50.350;6.576;2023-07-20T13:14:55;96093.56;;;23.84;37.78